createdAt,value
2023-01-12T00:01:59.972Z,7.89
2023-01-12T00:04:26.735Z,7.89
2023-01-12T00:06:53.882Z,7.81
2023-01-12T00:09:20.587Z,7.79
2023-01-12T00:11:49.466Z,7.81
2023-01-12T00:14:16.709Z,7.87
2023-01-12T00:16:43.461Z,7.82
2023-01-12T00:19:13.244Z,7.82
2023-01-12T00:22:04.233Z,7.85
2023-01-12T00:24:33.807Z,7.99
2023-01-12T00:27:02.133Z,8.01
2023-01-12T00:29:28.812Z,7.99
2023-01-12T00:31:56.571Z,8.00
2023-01-12T00:34:23.390Z,8.07
2023-01-12T00:36:50.361Z,8.20
2023-01-12T00:39:17.588Z,8.14
2023-01-12T00:42:03.816Z,8.17
2023-01-12T00:44:49.646Z,8.07
2023-01-12T00:47:19.266Z,7.98
2023-01-12T00:49:46.382Z,7.91
2023-01-12T00:52:29.865Z,7.95
2023-01-12T00:54:57.484Z,7.85
2023-01-12T00:57:24.088Z,7.84
2023-01-12T00:59:55.499Z,7.78
2023-01-12T01:02:22.795Z,7.73
2023-01-12T01:04:51.760Z,7.67
2023-01-12T01:07:18.628Z,7.61
2023-01-12T01:09:45.307Z,7.57
2023-01-12T01:12:11.981Z,7.52
2023-01-12T01:14:40.759Z,7.50
2023-01-12T01:17:07.443Z,7.38
2023-01-12T01:19:34.331Z,7.32
2023-01-12T01:22:00.911Z,7.41
2023-01-12T01:24:27.681Z,7.39
2023-01-12T01:26:54.308Z,7.38
2023-01-12T01:29:20.991Z,7.44
2023-01-12T01:31:47.812Z,7.58
2023-01-12T01:34:14.853Z,7.55
2023-01-12T01:36:41.718Z,7.37
2023-01-12T01:39:08.400Z,7.49
2023-01-12T01:41:34.983Z,7.49
2023-01-12T01:44:06.163Z,7.43
2023-01-12T01:46:55.245Z,7.47
2023-01-12T01:49:31.034Z,7.30
2023-01-12T01:52:03.399Z,7.24
2023-01-12T01:54:35.885Z,7.29
2023-01-12T01:57:03.240Z,7.28
2023-01-12T01:59:34.786Z,7.22
2023-01-12T02:02:02.764Z,7.35
2023-01-12T02:04:30.667Z,7.24
2023-01-12T02:06:59.374Z,7.27
2023-01-12T02:09:30.867Z,7.36
2023-01-12T02:12:16.535Z,7.25
2023-01-12T02:15:05.657Z,7.27
2023-01-12T02:17:47.168Z,7.31
2023-01-12T02:20:46.241Z,7.34
2023-01-12T02:23:34.285Z,7.32
2023-01-12T02:26:18.328Z,7.20
2023-01-12T02:29:11.779Z,7.08
2023-01-12T02:31:43.379Z,6.98
2023-01-12T02:34:26.369Z,6.85
2023-01-12T02:37:21.878Z,6.86
2023-01-12T02:40:09.737Z,6.73
2023-01-12T02:42:47.540Z,6.64
2023-01-12T02:45:23.190Z,6.48
2023-01-12T02:47:59.033Z,6.43
2023-01-12T02:50:33.499Z,6.34
2023-01-12T02:53:06.428Z,6.32
2023-01-12T02:55:34.763Z,6.29
2023-01-12T02:58:03.560Z,6.25
2023-01-12T03:00:30.688Z,6.26
2023-01-12T03:02:57.314Z,6.22
2023-01-12T03:05:23.979Z,6.17
2023-01-12T03:07:58.925Z,6.23
2023-01-12T03:10:34.644Z,6.22
2023-01-12T03:13:06.449Z,6.12
2023-01-12T03:15:39.839Z,5.91
2023-01-12T03:18:15.159Z,5.84
2023-01-12T03:20:48.831Z,5.86
2023-01-12T03:23:19.463Z,5.74
2023-01-12T03:25:51.959Z,5.71
2023-01-12T03:28:21.218Z,5.73
2023-01-12T03:31:09.032Z,5.70
2023-01-12T03:33:36.547Z,5.71
2023-01-12T03:36:31.051Z,5.68
2023-01-12T03:39:07.844Z,5.52
2023-01-12T03:41:46.286Z,5.49
2023-01-12T03:44:21.633Z,5.51
2023-01-12T03:46:55.336Z,5.35
2023-01-12T03:49:21.740Z,5.26
2023-01-12T03:51:49.985Z,5.21
2023-01-12T03:54:18.184Z,5.17
2023-01-12T03:56:47.303Z,4.94
2023-01-12T03:59:14.373Z,4.93
2023-01-12T04:01:42.012Z,4.77
2023-01-12T04:04:08.727Z,4.81
2023-01-12T04:06:35.330Z,4.72
2023-01-12T04:09:02.382Z,4.59
2023-01-12T04:11:47.782Z,4.44
2023-01-12T04:14:14.367Z,4.41
2023-01-12T04:16:40.964Z,4.31
2023-01-12T04:19:07.576Z,4.20
2023-01-12T04:21:52.648Z,4.22
2023-01-12T04:24:19.217Z,4.19
2023-01-12T04:26:48.230Z,4.14
2023-01-12T04:29:14.835Z,4.25
2023-01-12T04:31:41.386Z,4.24
2023-01-12T04:34:08.016Z,4.05
2023-01-12T04:36:34.536Z,3.99
2023-01-12T04:39:01.168Z,3.88
2023-01-12T04:41:27.677Z,3.74
2023-01-12T04:43:54.227Z,3.62
2023-01-12T04:46:20.801Z,3.56
2023-01-12T04:48:49.704Z,3.72
2023-01-12T04:51:18.558Z,3.60
2023-01-12T04:53:45.164Z,3.43
2023-01-12T04:56:11.683Z,3.45
2023-01-12T04:58:38.304Z,3.54
2023-01-12T05:01:16.321Z,3.29
2023-01-12T05:03:44.070Z,3.31
2023-01-12T05:06:11.442Z,3.33
2023-01-12T05:08:56.982Z,3.18
2023-01-12T05:11:28.517Z,3.26
2023-01-12T05:13:56.488Z,3.24
2023-01-12T05:16:23.498Z,3.14
2023-01-12T05:18:53.452Z,3.06
2023-01-12T05:21:22.246Z,2.93
2023-01-12T05:23:50.443Z,3.12
2023-01-12T05:26:19.795Z,3.19
2023-01-12T05:28:51.047Z,3.10
2023-01-12T05:31:20.179Z,3.08
2023-01-12T05:33:47.127Z,2.97
2023-01-12T05:36:15.731Z,3.04
2023-01-12T05:38:42.870Z,3.03
2023-01-12T05:41:14.571Z,3.06
2023-01-12T05:43:50.590Z,3.11
2023-01-12T05:46:26.215Z,2.97
2023-01-12T05:48:54.669Z,3.07
2023-01-12T05:51:22.208Z,3.02
2023-01-12T05:53:49.188Z,2.96
2023-01-12T05:56:21.965Z,3.04
2023-01-12T05:58:50.290Z,2.97
2023-01-12T06:01:17.027Z,2.80
2023-01-12T06:03:43.674Z,2.84
2023-01-12T06:06:15.731Z,2.66
2023-01-12T06:08:42.426Z,2.76
2023-01-12T06:11:31.409Z,2.76
2023-01-12T06:13:59.028Z,2.75
2023-01-12T06:16:26.821Z,2.60
2023-01-12T06:18:56.603Z,2.58
2023-01-12T06:21:23.851Z,2.56
2023-01-12T06:23:50.441Z,2.55
2023-01-12T06:26:17.322Z,2.61
2023-01-12T06:28:44.007Z,2.51
2023-01-12T06:31:12.990Z,2.46
2023-01-12T06:33:42.555Z,2.45
2023-01-12T06:36:10.409Z,2.44
2023-01-12T06:38:37.692Z,2.30
2023-01-12T06:41:29.080Z,2.26
2023-01-12T06:43:58.844Z,2.24
2023-01-12T06:46:29.225Z,2.22
2023-01-12T06:48:57.367Z,2.33
2023-01-12T06:51:24.725Z,2.35
2023-01-12T06:53:51.748Z,2.33
2023-01-12T06:56:18.299Z,2.24
2023-01-12T06:58:45.142Z,2.13
2023-01-12T07:01:14.313Z,2.25
2023-01-12T07:03:41.013Z,2.29
2023-01-12T07:06:08.054Z,2.24
2023-01-12T07:08:35.075Z,2.23
2023-01-12T07:11:03.981Z,2.22
2023-01-12T07:13:33.815Z,2.19
2023-01-12T07:16:01.631Z,2.32
2023-01-12T07:18:29.193Z,2.22
2023-01-12T07:20:58.781Z,2.28
2023-01-12T07:23:25.551Z,2.33
2023-01-12T07:25:56.539Z,2.32
2023-01-12T07:28:23.059Z,2.22
2023-01-12T07:30:51.869Z,2.20
2023-01-12T07:33:18.843Z,2.35
2023-01-12T07:35:45.812Z,2.47
2023-01-12T07:38:12.409Z,2.61
2023-01-12T07:40:39.021Z,2.61
2023-01-12T07:43:08.740Z,2.46
2023-01-12T07:45:36.128Z,2.54
2023-01-12T07:48:02.906Z,2.88
2023-01-12T07:50:29.912Z,3.44
2023-01-12T07:53:01.296Z,3.76
2023-01-12T07:55:28.882Z,4.02
2023-01-12T07:58:09.147Z,4.24
2023-01-12T08:00:36.403Z,4.48
2023-01-12T08:03:13.968Z,4.63
2023-01-12T08:05:40.638Z,4.72
2023-01-12T08:08:07.562Z,4.83
2023-01-12T08:10:34.333Z,4.98
2023-01-12T08:13:00.923Z,5.11
2023-01-12T08:15:31.811Z,5.18
2023-01-12T08:18:06.302Z,5.29
2023-01-12T08:20:36.520Z,5.36
2023-01-12T08:23:11.634Z,5.53
2023-01-12T08:25:44.640Z,5.72
2023-01-12T08:28:19.064Z,5.86
2023-01-12T08:30:49.318Z,5.98
2023-01-12T08:33:18.890Z,5.95
2023-01-12T08:35:46.589Z,6.03
2023-01-12T08:38:13.682Z,6.00
2023-01-12T08:40:58.904Z,6.02
2023-01-12T08:43:43.672Z,6.09
2023-01-12T08:46:10.423Z,6.14
2023-01-12T08:48:38.427Z,6.37
2023-01-12T08:51:08.435Z,6.44
2023-01-12T08:53:35.611Z,6.56
2023-01-12T08:56:02.456Z,6.56
2023-01-12T08:58:28.980Z,6.68
2023-01-12T09:00:55.756Z,6.72
2023-01-12T09:03:22.423Z,6.88
2023-01-12T09:05:49.004Z,6.94
2023-01-12T09:08:15.706Z,7.11
2023-01-12T09:10:42.325Z,7.27
2023-01-12T09:13:10.104Z,7.49
2023-01-12T09:15:36.700Z,7.53
2023-01-12T09:18:03.298Z,7.66
2023-01-12T09:20:29.916Z,7.86
2023-01-12T09:22:56.517Z,7.94
2023-01-12T09:25:23.057Z,7.99
2023-01-12T09:27:51.873Z,7.95
2023-01-12T09:30:18.474Z,8.11
2023-01-12T09:32:45.011Z,8.21
2023-01-12T09:35:11.554Z,8.30
2023-01-12T09:37:40.438Z,8.33
2023-01-12T09:40:07.716Z,8.43
2023-01-12T09:42:55.854Z,8.39
2023-01-12T09:45:41.954Z,8.66
2023-01-12T09:48:12.281Z,9.15
2023-01-12T09:50:50.035Z,9.41
2023-01-12T09:53:31.268Z,9.58
2023-01-12T09:56:03.598Z,9.41
2023-01-12T09:58:41.727Z,9.45
2023-01-12T10:01:24.187Z,9.35
2023-01-12T10:03:55.989Z,8.98
2023-01-12T10:06:22.742Z,8.94
2023-01-12T10:08:55.820Z,8.68
2023-01-12T10:12:00.046Z,8.82
2023-01-12T10:14:57.153Z,8.74
2023-01-12T10:17:50.259Z,8.38
2023-01-12T10:20:29.992Z,8.33
2023-01-12T10:23:11.141Z,8.25
2023-01-12T10:25:44.662Z,8.08
2023-01-12T10:28:48.353Z,8.20
2023-01-12T10:31:20.004Z,8.22
2023-01-12T10:34:07.352Z,8.31
2023-01-12T10:36:41.899Z,8.36
2023-01-12T10:39:35.375Z,8.51
2023-01-12T10:42:39.533Z,8.68
2023-01-12T10:45:12.604Z,8.68
2023-01-12T10:47:39.409Z,8.80
2023-01-12T10:50:37.371Z,8.96
2023-01-12T10:53:15.301Z,9.11
2023-01-12T10:55:43.701Z,9.11
2023-01-12T10:58:30.486Z,9.28
2023-01-12T11:00:58.168Z,9.39
2023-01-12T11:03:32.327Z,9.28
2023-01-12T11:06:25.196Z,9.23
2023-01-12T11:08:52.052Z,9.06
2023-01-12T11:11:33.749Z,9.09
2023-01-12T11:14:04.674Z,9.00
2023-01-12T11:16:33.001Z,8.88
2023-01-12T11:19:02.330Z,8.69
2023-01-12T11:21:34.737Z,8.82
2023-01-12T11:24:17.049Z,8.90
2023-01-12T11:26:56.193Z,8.77
2023-01-12T11:29:36.078Z,8.95
2023-01-12T11:32:33.043Z,8.93
2023-01-12T11:35:22.449Z,8.94
2023-01-12T11:37:49.737Z,9.29
2023-01-12T11:40:21.544Z,9.44
2023-01-12T11:43:11.190Z,9.52
2023-01-12T11:45:51.484Z,9.53
2023-01-12T11:48:30.595Z,9.54
2023-01-12T11:50:58.538Z,9.40
2023-01-12T11:53:25.748Z,9.30
2023-01-12T11:56:08.777Z,9.17
2023-01-12T11:59:05.917Z,9.20
2023-01-12T12:01:45.401Z,9.20
2023-01-12T12:04:37.667Z,9.19
2023-01-12T12:07:13.119Z,9.16
2023-01-12T12:10:04.843Z,9.20
2023-01-12T12:12:40.081Z,9.11
2023-01-12T12:15:22.816Z,8.98
2023-01-12T12:18:07.139Z,9.04
2023-01-12T12:20:43.275Z,9.33
2023-01-12T12:23:20.776Z,9.33
2023-01-12T12:25:54.069Z,9.35
2023-01-12T12:28:23.919Z,9.32
2023-01-12T12:31:01.392Z,9.22
2023-01-12T12:33:27.981Z,9.19
2023-01-12T12:36:06.811Z,9.17
2023-01-12T12:38:48.603Z,9.30
2023-01-12T12:41:41.986Z,9.21
2023-01-12T12:45:01.835Z,9.28
2023-01-12T12:47:46.978Z,9.19
2023-01-12T12:50:23.078Z,9.25
2023-01-12T12:53:10.552Z,9.26
2023-01-12T12:55:49.020Z,9.12
2023-01-12T12:58:21.725Z,9.22
2023-01-12T13:00:54.025Z,9.27
2023-01-12T13:03:39.230Z,9.47
2023-01-12T13:06:28.905Z,9.66
2023-01-12T13:09:00.619Z,9.65
2023-01-12T13:11:54.129Z,9.74
2023-01-12T13:14:53.269Z,9.75
2023-01-12T13:17:19.878Z,9.56
2023-01-12T13:19:48.489Z,9.58
2023-01-12T13:22:27.937Z,9.71
2023-01-12T13:25:17.196Z,9.57
2023-01-12T13:27:57.699Z,9.53
2023-01-12T13:30:35.450Z,9.43
2023-01-12T13:33:14.706Z,9.65
2023-01-12T13:35:44.367Z,9.54
2023-01-12T13:38:21.859Z,9.51
2023-01-12T13:40:55.550Z,9.57
2023-01-12T13:43:30.386Z,9.69
2023-01-12T13:46:00.977Z,9.69
2023-01-12T13:48:30.028Z,9.82
2023-01-12T13:51:01.751Z,10.11
2023-01-12T13:53:30.390Z,10.19
2023-01-12T13:56:02.566Z,10.21
2023-01-12T13:58:42.017Z,10.37
2023-01-12T14:01:23.010Z,10.54
2023-01-12T14:04:21.632Z,10.53
2023-01-12T14:07:20.051Z,10.48
2023-01-12T14:10:19.189Z,10.51
2023-01-12T14:13:06.500Z,10.33
2023-01-12T14:15:56.323Z,10.43
2023-01-12T14:18:41.916Z,10.30
2023-01-12T14:21:31.815Z,10.18
2023-01-12T14:24:20.607Z,10.20
2023-01-12T14:26:47.819Z,10.08
2023-01-12T14:29:14.916Z,10.04
2023-01-12T14:31:53.319Z,9.98
2023-01-12T14:34:29.200Z,10.02
2023-01-12T14:36:56.916Z,10.05
2023-01-12T14:39:26.595Z,9.90
2023-01-12T14:42:16.018Z,10.10
2023-01-12T14:45:12.086Z,10.04
2023-01-12T14:47:41.460Z,10.05
2023-01-12T14:50:22.314Z,9.99
2023-01-12T14:52:49.337Z,10.03
2023-01-12T14:55:26.065Z,10.04
2023-01-12T14:57:58.852Z,10.07
2023-01-12T15:00:28.210Z,10.02
2023-01-12T15:02:56.929Z,9.87
2023-01-12T15:05:30.201Z,9.91
2023-01-12T15:08:02.221Z,9.96
2023-01-12T15:10:30.455Z,9.94
2023-01-12T15:13:18.091Z,9.77
2023-01-12T15:16:03.198Z,9.71
2023-01-12T15:18:48.292Z,9.60
2023-01-12T15:21:33.431Z,9.53
2023-01-12T15:24:18.726Z,9.42
2023-01-12T15:26:47.884Z,9.46
2023-01-12T15:29:17.566Z,9.46
2023-01-12T15:31:44.229Z,9.41
2023-01-12T15:34:14.295Z,9.26
2023-01-12T15:36:40.874Z,9.11
2023-01-12T15:39:12.992Z,9.10
2023-01-12T15:41:58.002Z,9.02
2023-01-12T15:44:24.869Z,9.03
2023-01-12T15:46:51.537Z,8.84
2023-01-12T15:49:18.906Z,8.91
2023-01-12T15:51:52.698Z,8.88
2023-01-12T15:54:19.720Z,8.75
2023-01-12T15:56:47.928Z,8.83
2023-01-12T15:59:14.833Z,8.75
2023-01-12T16:01:45.203Z,8.63
2023-01-12T16:07:07.011Z,8.62
2023-01-12T16:09:33.612Z,8.58
2023-01-12T16:12:00.202Z,8.55
2023-01-12T16:14:26.800Z,8.43
2023-01-12T16:16:55.776Z,8.49
2023-01-12T16:19:23.683Z,8.61
2023-01-12T16:21:50.365Z,8.50
2023-01-12T16:24:17.000Z,8.51
2023-01-12T16:26:48.301Z,8.53
2023-01-12T16:29:15.153Z,8.61
2023-01-12T16:31:42.353Z,8.48
2023-01-12T16:34:09.557Z,8.48
2023-01-12T16:36:36.163Z,8.45
2023-01-12T16:39:02.828Z,8.47
2023-01-12T16:41:29.479Z,8.45
2023-01-12T16:43:58.812Z,8.48
2023-01-12T16:46:25.422Z,8.42
2023-01-12T16:48:55.386Z,8.29
2023-01-12T16:51:22.328Z,8.33
2023-01-12T16:53:48.865Z,8.37
2023-01-12T16:56:16.385Z,8.35
2023-01-12T16:58:47.846Z,8.28
2023-01-12T17:01:18.012Z,8.19
2023-01-12T17:03:45.434Z,8.18
2023-01-12T17:06:15.335Z,8.07
2023-01-12T17:08:44.491Z,8.00
2023-01-12T17:11:15.759Z,7.96
2023-01-12T17:13:42.452Z,7.91
2023-01-12T17:16:12.426Z,8.05
2023-01-12T17:18:42.456Z,8.28
2023-01-12T17:21:12.750Z,8.32
2023-01-12T17:23:41.178Z,8.29
2023-01-12T17:26:12.996Z,8.26
2023-01-12T17:28:40.604Z,8.20
2023-01-12T17:31:13.246Z,8.06
2023-01-12T17:33:40.211Z,8.04
2023-01-12T17:36:11.461Z,7.95
2023-01-12T17:38:40.648Z,7.96
2023-01-12T17:41:33.454Z,7.89
2023-01-12T17:44:01.910Z,7.99
2023-01-12T17:46:31.867Z,7.92
2023-01-12T17:49:00.189Z,7.92
2023-01-12T17:51:29.997Z,7.92
2023-01-12T17:54:01.356Z,7.96
2023-01-12T17:56:32.886Z,7.90
2023-01-12T17:59:05.446Z,7.97
2023-01-12T18:01:34.443Z,8.02
2023-01-12T18:04:04.205Z,7.99
2023-01-12T18:06:31.311Z,7.90
2023-01-12T18:09:00.756Z,7.83
2023-01-12T18:11:31.353Z,7.83
2023-01-12T18:13:58.790Z,7.69
2023-01-12T18:16:25.346Z,7.60
2023-01-12T18:18:53.301Z,7.49
2023-01-12T18:21:22.737Z,7.55
2023-01-12T18:23:51.081Z,7.63
2023-01-12T18:26:20.957Z,7.55
2023-01-12T18:28:47.692Z,7.53
2023-01-12T18:31:22.327Z,7.56
2023-01-12T18:33:52.531Z,7.53
2023-01-12T18:36:23.528Z,7.46
2023-01-12T18:38:53.992Z,7.46
2023-01-12T18:41:42.685Z,7.40
2023-01-12T18:44:09.473Z,7.39
2023-01-12T18:46:59.294Z,7.36
2023-01-12T18:49:28.864Z,7.35
2023-01-12T18:52:14.524Z,7.34
2023-01-12T18:54:51.864Z,7.58
2023-01-12T18:57:24.742Z,7.45
2023-01-12T18:59:55.622Z,7.33
2023-01-12T19:02:22.334Z,7.31
2023-01-12T19:04:52.286Z,7.36
2023-01-12T19:07:32.824Z,7.34
2023-01-12T19:10:02.611Z,7.27
2023-01-12T19:12:33.662Z,7.26
2023-01-12T19:15:18.915Z,7.20
2023-01-12T19:17:45.530Z,7.15
2023-01-12T19:20:17.238Z,7.24
2023-01-12T19:23:02.462Z,7.17
2023-01-12T19:25:47.802Z,7.14
2023-01-12T19:28:32.895Z,7.14
2023-01-12T19:31:11.018Z,7.17
2023-01-12T19:33:38.568Z,7.13
2023-01-12T19:36:15.945Z,7.30
2023-01-12T19:38:50.588Z,7.26
2023-01-12T19:41:46.563Z,7.26
2023-01-12T19:44:13.021Z,7.31
2023-01-12T19:46:39.617Z,7.27
2023-01-12T19:49:07.847Z,7.24
2023-01-12T19:51:34.367Z,7.27
2023-01-12T19:54:00.813Z,7.26
2023-01-12T19:56:27.413Z,7.41
2023-01-12T19:58:54.157Z,7.31
2023-01-12T20:01:22.179Z,7.37
2023-01-12T20:03:50.557Z,7.40
2023-01-12T20:06:17.179Z,7.44
2023-01-12T20:08:44.111Z,7.37
2023-01-12T20:11:10.662Z,7.26
2023-01-12T20:13:37.363Z,7.32
2023-01-12T20:16:08.516Z,7.23
2023-01-12T20:18:37.606Z,7.29
2023-01-12T20:21:13.665Z,7.34
2023-01-12T20:23:40.198Z,7.37
2023-01-12T20:26:08.263Z,7.32
2023-01-12T20:28:35.417Z,7.25
2023-01-12T20:31:01.936Z,7.23
2023-01-12T20:33:28.487Z,7.29
2023-01-12T20:35:57.059Z,7.28
2023-01-12T20:38:23.960Z,7.27
2023-01-12T20:40:50.512Z,7.23
2023-01-12T20:43:17.023Z,7.27
2023-01-12T20:45:44.242Z,7.40
2023-01-12T20:48:13.681Z,7.38
2023-01-12T20:50:46.927Z,7.46
2023-01-12T20:53:17.296Z,7.40
2023-01-12T20:55:49.197Z,7.60
2023-01-12T20:58:16.649Z,7.35
2023-01-12T21:00:45.529Z,7.37
2023-01-12T21:03:12.159Z,7.35
2023-01-12T21:05:43.786Z,7.49
2023-01-12T21:08:10.676Z,7.37
2023-01-12T21:10:38.526Z,7.33
2023-01-12T21:13:06.022Z,7.35
2023-01-12T21:15:33.115Z,7.33
2023-01-12T21:17:59.638Z,7.25
2023-01-12T21:20:26.099Z,7.43
2023-01-12T21:22:55.042Z,7.39
2023-01-12T21:25:27.793Z,7.29
2023-01-12T21:27:57.323Z,7.37
2023-01-12T21:30:23.821Z,7.38
2023-01-12T21:32:50.343Z,7.37
2023-01-12T21:35:17.831Z,7.34
2023-01-12T21:37:44.320Z,7.30
2023-01-12T21:40:14.342Z,7.28
2023-01-12T21:42:59.551Z,7.22
2023-01-12T21:45:26.334Z,7.19
2023-01-12T21:47:55.338Z,7.09
2023-01-12T21:50:22.552Z,7.04
2023-01-12T21:52:49.164Z,7.04
2023-01-12T21:55:15.727Z,6.93
2023-01-12T21:57:43.916Z,7.01
2023-01-12T22:00:11.058Z,6.89
2023-01-12T22:02:37.644Z,6.90
2023-01-12T22:05:04.496Z,6.63
2023-01-12T22:07:35.861Z,6.48
2023-01-12T22:10:21.809Z,6.40
2023-01-12T22:12:51.673Z,6.27
2023-01-12T22:15:18.738Z,6.11
2023-01-12T22:17:45.284Z,6.08
2023-01-12T22:20:12.823Z,6.07
2023-01-12T22:22:40.152Z,6.08
2023-01-12T22:25:12.174Z,6.03
2023-01-12T22:27:41.493Z,6.03
2023-01-12T22:30:10.868Z,5.97
2023-01-12T22:32:37.627Z,5.84
2023-01-12T22:35:04.942Z,5.64
2023-01-12T22:37:35.047Z,5.63
2023-01-12T22:40:02.175Z,5.65
2023-01-12T22:42:47.158Z,5.73
2023-01-12T22:45:17.327Z,5.78
2023-01-12T22:47:48.534Z,5.79
2023-01-12T22:50:17.777Z,5.77
2023-01-12T22:52:44.293Z,5.83
2023-01-12T22:55:10.777Z,5.87
2023-01-12T22:57:37.259Z,6.05
2023-01-12T23:00:04.655Z,6.08
2023-01-12T23:02:49.863Z,6.09
2023-01-12T23:05:16.389Z,5.99
2023-01-12T23:07:42.979Z,6.09
2023-01-12T23:10:09.815Z,6.02
2023-01-12T23:12:36.250Z,5.97
2023-01-12T23:15:02.903Z,5.90
2023-01-12T23:17:30.473Z,5.96
2023-01-12T23:19:56.938Z,5.95
2023-01-12T23:22:25.729Z,5.93
2023-01-12T23:24:52.186Z,5.92
2023-01-12T23:27:18.679Z,5.82
2023-01-12T23:29:46.956Z,5.80
2023-01-12T23:32:13.384Z,5.68
2023-01-12T23:34:39.840Z,5.61
2023-01-12T23:37:06.254Z,5.60
2023-01-12T23:39:32.841Z,5.54
2023-01-12T23:41:59.250Z,5.52
2023-01-12T23:44:28.228Z,5.52
2023-01-12T23:46:56.871Z,5.54
2023-01-12T23:49:23.488Z,5.58
2023-01-12T23:51:52.255Z,5.48
2023-01-12T23:54:18.780Z,5.44
2023-01-12T23:56:45.255Z,5.46
2023-01-12T23:59:14.191Z,5.60
